Time;durP1;ratioP1;P1;durP2;ratioP2;P2;SDS_P1;SDS_P2;PMS_P1;PMS_P2;Temp;Humidity;BMP_temperature;BMP_pressure;BME280_temperature;BME280_humidity;BME280_pressure;Samples;Min_cycle;Max_cycle;Signal;HPM_P1;HPM_P2
2021/03/10 00:00:05;;;;;;;15.63;10.57;;;;;;;;;;5040312;28;20197;-68
2021/03/10 00:02:30;;;;;;;22.50;11.83;;;;;;;;;;5040908;28;20235;-68
2021/03/10 00:04:55;;;;;;;17.97;11.90;;;;;;;;;;5023278;28;20560;-67
2021/03/10 00:07:20;;;;;;;18.33;11.43;;;;;;;;;;5033801;28;20175;-68
2021/03/10 00:09:45;;;;;;;19.07;12.23;;;;;;;;;;5048724;28;20201;-67
2021/03/10 00:12:11;;;;;;;16.77;11.47;;;;;;;;;;5049982;28;20646;-67
2021/03/10 00:14:36;;;;;;;19.00;11.63;;;;;;;;;;5044480;28;20184;-67
2021/03/10 00:17:01;;;;;;;19.00;12.43;;;;;;;;;;5049878;28;20193;-67
2021/03/10 00:19:26;;;;;;;18.57;12.33;;;;;;;;;;5046716;28;20205;-67
2021/03/10 00:21:51;;;;;;;17.07;12.13;;;;;;;;;;5049044;28;20203;-67
2021/03/10 00:24:17;;;;;;;15.90;11.37;;;;;;;;;;5052754;28;20181;-67
2021/03/10 00:26:43;;;;;;;15.40;10.20;;;;;;;;;;5048747;28;20177;-67
2021/03/10 00:29:09;;;;;;;13.17;9.57;;;;;;;;;;5050626;28;20297;-68
2021/03/10 00:31:34;;;;;;;18.53;9.90;;;;;;;;;;5045812;28;20226;-68
2021/03/10 00:33:59;;;;;;;16.37;10.70;;;;;;;;;;5048357;28;20638;-67
2021/03/10 00:36:24;;;;;;;12.47;9.67;;;;;;;;;;5053357;28;20556;-67
2021/03/10 00:38:49;;;;;;;17.40;11.43;;;;;;;;;;5046702;28;20202;-68
2021/03/10 00:41:15;;;;;;;16.40;11.77;;;;;;;;;;5044294;28;21290;-67
2021/03/10 00:43:40;;;;;;;17.13;10.50;;;;;;;;;;5045986;28;20649;-68
2021/03/10 00:46:05;;;;;;;13.83;9.77;;;;;;;;;;5048825;28;20694;-68
2021/03/10 00:48:30;;;;;;;13.10;9.67;;;;;;;;;;5050352;28;20189;-67
2021/03/10 00:50:55;;;;;;;17.00;10.67;;;;;;;;;;5045672;28;20671;-68
2021/03/10 00:53:20;;;;;;;16.37;10.10;;;;;;;;;;5050807;28;20177;-68
2021/03/10 00:55:46;;;;;;;14.23;10.53;;;;;;;;;;5048336;28;20652;-67
2021/03/10 00:58:11;;;;;;;17.83;12.87;;;;;;;;;;5047561;28;20263;-67
2021/03/10 01:00:36;;;;;;;18.67;11.27;;;;;;;;;;5047044;28;21674;-66
2021/03/10 01:03:01;;;;;;;15.83;11.90;;;;;;;;;;5044791;28;20169;-67
2021/03/10 01:05:26;;;;;;;17.30;11.60;;;;;;;;;;5047619;28;20178;-68
2021/03/10 01:07:52;;;;;;;16.43;11.63;;;;;;;;;;5051211;28;20196;-67
2021/03/10 01:10:17;;;;;;;18.57;11.97;;;;;;;;;;5049848;28;20278;-67
2021/03/10 01:12:43;;;;;;;15.37;11.57;;;;;;;;;;5050050;28;20182;-67
2021/03/10 01:15:10;;;;;;;18.70;12.13;;;;;;;;;;5048356;28;20352;-67
2021/03/10 01:17:35;;;;;;;16.97;12.17;;;;;;;;;;5045284;28;20200;-67
2021/03/10 01:20:00;;;;;;;16.73;12.20;;;;;;;;;;5050849;28;20194;-68
2021/03/10 01:22:25;;;;;;;17.47;12.90;;;;;;;;;;5045933;28;20260;-68
2021/03/10 01:24:50;;;;;;;20.93;13.47;;;;;;;;;;5048496;28;20216;-67
2021/03/10 01:27:17;;;;;;;19.93;14.17;;;;;;;;;;5045981;28;20189;-68
2021/03/10 01:29:43;;;;;;;20.33;13.83;;;;;;;;;;5046866;28;20202;-68
2021/03/10 01:32:08;;;;;;;18.63;12.33;;;;;;;;;;5050902;28;20204;-67
2021/03/10 01:34:33;;;;;;;19.47;12.67;;;;;;;;;;5045123;28;20215;-67
2021/03/10 01:36:58;;;;;;;21.97;12.97;;;;;;;;;;5044574;28;20276;-68
2021/03/10 01:39:23;;;;;;;22.00;13.43;;;;;;;;;;5043048;28;20198;-67
2021/03/10 01:41:48;;;;;;;21.30;13.60;;;;;;;;;;5044111;28;20178;-68
2021/03/10 01:44:15;;;;;;;21.43;13.37;;;;;;;;;;5050122;28;20209;-66
2021/03/10 01:46:40;;;;;;;19.20;13.30;;;;;;;;;;5047440;28;20673;-67
2021/03/10 01:49:06;;;;;;;18.90;12.93;;;;;;;;;;5049936;28;20300;-67
2021/03/10 01:51:32;;;;;;;18.90;13.27;;;;;;;;;;5048108;28;20185;-67
2021/03/10 01:53:57;;;;;;;17.43;12.30;;;;;;;;;;5048157;28;20196;-68
2021/03/10 01:56:24;;;;;;;18.23;12.33;;;;;;;;;;5044102;28;20178;-68
2021/03/10 01:58:50;;;;;;;17.67;13.17;;;;;;;;;;5049018;28;20711;-68
2021/03/10 02:01:15;;;;;;;23.27;13.33;;;;;;;;;;5042093;28;20220;-67
2021/03/10 02:03:40;;;;;;;19.27;13.63;;;;;;;;;;5046118;28;20589;-67
2021/03/10 02:06:07;;;;;;;17.57;12.63;;;;;;;;;;5048011;28;20288;-67
2021/03/10 02:08:38;;;;;;;17.07;12.93;;;;;;;;;;5049528;28;20187;-68
2021/03/10 02:11:07;;;;;;;19.47;12.63;;;;;;;;;;5047944;28;20266;-67
2021/03/10 02:13:44;;;;;;;18.73;12.67;;;;;;;;;;5040939;28;20181;-67
2021/03/10 02:16:15;;;;;;;19.80;13.67;;;;;;;;;;5047088;28;20690;-67
2021/03/10 02:18:48;;;;;;;19.27;13.93;;;;;;;;;;5048074;28;20218;-67
2021/03/10 02:21:26;;;;;;;18.33;13.10;;;;;;;;;;5043253;28;20178;-67
2021/03/10 02:24:03;;;;;;;17.90;13.20;;;;;;;;;;5046721;28;20182;-67
2021/03/10 02:26:28;;;;;;;19.93;14.10;;;;;;;;;;5050286;28;20259;-67
2021/03/10 02:28:54;;;;;;;17.67;12.70;;;;;;;;;;5049099;28;20770;-67
2021/03/10 02:31:20;;;;;;;20.37;13.47;;;;;;;;;;5047296;28;20563;-67
2021/03/10 02:33:46;;;;;;;18.50;12.80;;;;;;;;;;5045182;28;20173;-68
2021/03/10 02:36:12;;;;;;;19.10;14.53;;;;;;;;;;5049322;28;20173;-68
2021/03/10 02:38:47;;;;;;;17.60;13.13;;;;;;;;;;5045912;28;20284;-68
2021/03/10 02:41:12;;;;;;;23.50;14.20;;;;;;;;;;5044894;28;20174;-67
2021/03/10 02:43:38;;;;;;;21.90;14.73;;;;;;;;;;5048818;28;20185;-67
2021/03/10 02:46:04;;;;;;;23.20;16.07;;;;;;;;;;5049010;28;20212;-67
2021/03/10 02:48:30;;;;;;;24.83;15.70;;;;;;;;;;5046315;28;20188;-68
2021/03/10 02:50:56;;;;;;;20.97;15.20;;;;;;;;;;5044362;28;20177;-68
2021/03/10 02:53:21;;;;;;;24.77;16.30;;;;;;;;;;5040141;28;20208;-67
2021/03/10 02:55:47;;;;;;;24.37;16.33;;;;;;;;;;5045323;28;20264;-67
2021/03/10 02:58:12;;;;;;;24.40;16.57;;;;;;;;;;5046061;28;20212;-67
2021/03/10 03:00:38;;;;;;;23.87;17.13;;;;;;;;;;5046238;28;20201;-68
2021/03/10 03:03:03;;;;;;;28.00;17.97;;;;;;;;;;5046139;28;20177;-66
2021/03/10 03:05:28;;;;;;;24.07;16.63;;;;;;;;;;5046968;28;20170;-68
2021/03/10 03:07:54;;;;;;;27.73;17.57;;;;;;;;;;5049701;28;20182;-68
2021/03/10 03:10:20;;;;;;;26.63;16.07;;;;;;;;;;5052467;28;20205;-67
2021/03/10 03:12:46;;;;;;;25.27;17.87;;;;;;;;;;5048614;28;20295;-68
2021/03/10 03:15:15;;;;;;;27.90;19.00;;;;;;;;;;5057426;28;20268;-67
2021/03/10 03:17:41;;;;;;;28.33;17.57;;;;;;;;;;5053690;28;20224;-68
2021/03/10 03:20:06;;;;;;;28.70;18.20;;;;;;;;;;5050120;28;20205;-68
2021/03/10 03:22:33;;;;;;;27.97;18.37;;;;;;;;;;5053218;28;20182;-66
2021/03/10 03:24:58;;;;;;;26.30;17.57;;;;;;;;;;5053749;28;20247;-67
2021/03/10 03:27:27;;;;;;;31.47;17.37;;;;;;;;;;5052223;28;20181;-68
2021/03/10 03:29:55;;;;;;;30.27;17.50;;;;;;;;;;5050574;28;20213;-67
2021/03/10 03:32:22;;;;;;;26.83;17.53;;;;;;;;;;5052213;28;20247;-67
2021/03/10 03:34:47;;;;;;;28.80;17.70;;;;;;;;;;5049023;28;20191;-68
2021/03/10 03:37:13;;;;;;;31.13;17.80;;;;;;;;;;5054030;28;20205;-67
2021/03/10 03:39:38;;;;;;;32.60;18.40;;;;;;;;;;5039136;28;20259;-67
2021/03/10 03:42:04;;;;;;;30.13;17.63;;;;;;;;;;5051513;28;20170;-67
2021/03/10 03:44:29;;;;;;;27.67;17.20;;;;;;;;;;5052393;28;20216;-67
2021/03/10 03:46:54;;;;;;;28.23;17.97;;;;;;;;;;5045941;28;20271;-67
2021/03/10 03:49:19;;;;;;;28.37;16.97;;;;;;;;;;5053850;28;20203;-67
2021/03/10 03:51:44;;;;;;;26.00;17.57;;;;;;;;;;5046328;28;20178;-68
2021/03/10 03:54:10;;;;;;;31.23;18.23;;;;;;;;;;5060368;28;20192;-67
2021/03/10 03:56:35;;;;;;;29.27;17.30;;;;;;;;;;5058631;28;20213;-66
2021/03/10 03:59:00;;;;;;;32.93;19.80;;;;;;;;;;5062269;28;20224;-67
2021/03/10 04:01:26;;;;;;;36.03;19.07;;;;;;;;;;5052413;28;20247;-68
2021/03/10 04:03:51;;;;;;;30.13;18.53;;;;;;;;;;5049216;28;20227;-67
2021/03/10 04:06:16;;;;;;;36.43;18.97;;;;;;;;;;5052453;28;20639;-67
2021/03/10 04:08:43;;;;;;;32.87;18.17;;;;;;;;;;5050432;28;20262;-68
2021/03/10 04:11:09;;;;;;;30.77;18.47;;;;;;;;;;5049585;28;20185;-67
2021/03/10 04:13:34;;;;;;;38.57;19.90;;;;;;;;;;5051595;28;20185;-67
2021/03/10 04:15:59;;;;;;;37.97;20.87;;;;;;;;;;5053886;28;20162;-67
2021/03/10 04:18:25;;;;;;;40.50;20.93;;;;;;;;;;5052682;28;20228;-68
2021/03/10 04:20:50;;;;;;;35.73;20.40;;;;;;;;;;5049067;28;20268;-67
2021/03/10 04:23:15;;;;;;;39.80;21.93;;;;;;;;;;5052023;28;20559;-66
2021/03/10 04:25:41;;;;;;;42.97;21.43;;;;;;;;;;5046662;28;20275;-67
2021/03/10 04:28:06;;;;;;;37.40;20.80;;;;;;;;;;5051475;28;20194;-68
2021/03/10 04:30:32;;;;;;;38.47;21.23;;;;;;;;;;5050202;28;20591;-67
2021/03/10 04:32:58;;;;;;;41.70;23.53;;;;;;;;;;5046433;28;20482;-67
2021/03/10 04:35:23;;;;;;;42.27;21.03;;;;;;;;;;5050231;28;20185;-68
2021/03/10 04:37:49;;;;;;;46.57;24.27;;;;;;;;;;5049580;28;20213;-68
2021/03/10 04:40:14;;;;;;;44.60;24.67;;;;;;;;;;5051282;28;20215;-67
2021/03/10 04:42:40;;;;;;;48.30;23.20;;;;;;;;;;5048337;28;20568;-68
2021/03/10 04:45:07;;;;;;;47.73;24.57;;;;;;;;;;5051863;28;20643;-67
2021/03/10 04:47:32;;;;;;;47.07;26.00;;;;;;;;;;5046403;28;20185;-67
2021/03/10 04:49:57;;;;;;;50.37;25.03;;;;;;;;;;5051409;28;20198;-66
2021/03/10 04:52:23;;;;;;;46.57;26.03;;;;;;;;;;5045140;28;20673;-66
2021/03/10 04:54:49;;;;;;;46.73;25.13;;;;;;;;;;5051454;28;20177;-67
2021/03/10 04:57:14;;;;;;;51.10;27.30;;;;;;;;;;5049942;28;20245;-67
2021/03/10 04:59:39;;;;;;;51.80;27.30;;;;;;;;;;5050401;28;20236;-67
2021/03/10 05:02:04;;;;;;;54.07;27.57;;;;;;;;;;5044030;28;20252;-67
2021/03/10 05:04:29;;;;;;;64.67;30.30;;;;;;;;;;5050909;28;20173;-68
2021/03/10 05:06:55;;;;;;;55.37;28.37;;;;;;;;;;5047538;28;20193;-67
2021/03/10 05:09:20;;;;;;;52.60;30.37;;;;;;;;;;5050283;28;20284;-67
2021/03/10 05:11:45;;;;;;;59.63;31.00;;;;;;;;;;5046744;28;20632;-67
2021/03/10 05:14:10;;;;;;;57.07;28.90;;;;;;;;;;5053329;28;20260;-67
2021/03/10 05:16:35;;;;;;;68.53;32.83;;;;;;;;;;5045822;28;20189;-67
2021/03/10 05:19:00;;;;;;;59.73;32.70;;;;;;;;;;5052078;28;20228;-66
2021/03/10 05:21:26;;;;;;;60.83;32.27;;;;;;;;;;5046652;28;20190;-67
2021/03/10 05:23:51;;;;;;;64.77;31.70;;;;;;;;;;5051996;28;20209;-67
2021/03/10 05:26:16;;;;;;;60.97;34.07;;;;;;;;;;5049341;28;20173;-66
2021/03/10 05:28:41;;;;;;;60.90;32.07;;;;;;;;;;5045011;28;20679;-68
2021/03/10 05:31:07;;;;;;;61.73;31.97;;;;;;;;;;5048420;28;20570;-69
2021/03/10 05:33:32;;;;;;;67.57;34.83;;;;;;;;;;5049257;28;20177;-67
2021/03/10 05:35:57;;;;;;;63.03;32.33;;;;;;;;;;5048697;28;20213;-67
2021/03/10 05:38:23;;;;;;;59.67;33.97;;;;;;;;;;5050966;28;20205;-67
2021/03/10 05:40:48;;;;;;;65.77;32.83;;;;;;;;;;5038109;28;20202;-67
2021/03/10 05:43:15;;;;;;;68.30;36.30;;;;;;;;;;5043118;28;20178;-69
2021/03/10 05:45:40;;;;;;;66.37;33.87;;;;;;;;;;5050506;28;20630;-67
2021/03/10 05:48:06;;;;;;;70.67;36.87;;;;;;;;;;5048135;28;20190;-66
2021/03/10 05:50:31;;;;;;;74.97;36.30;;;;;;;;;;5047756;28;20205;-67
2021/03/10 05:52:57;;;;;;;62.20;33.83;;;;;;;;;;5044932;28;20216;-67
2021/03/10 05:55:22;;;;;;;68.00;33.47;;;;;;;;;;5047947;28;20188;-67
2021/03/10 05:57:48;;;;;;;66.50;36.27;;;;;;;;;;5038161;28;20683;-66
2021/03/10 06:00:14;;;;;;;71.77;38.70;;;;;;;;;;5050062;28;20197;-66
2021/03/10 06:02:40;;;;;;;64.90;35.10;;;;;;;;;;5042068;28;20196;-66
2021/03/10 06:05:16;;;;;;;80.13;38.27;;;;;;;;;;5048495;28;20173;-67
2021/03/10 06:07:41;;;;;;;68.63;35.33;;;;;;;;;;5047064;28;20187;-67
2021/03/10 06:10:06;;;;;;;68.13;36.83;;;;;;;;;;5051455;28;20205;-69
2021/03/10 06:12:41;;;;;;;65.90;34.97;;;;;;;;;;5048184;28;20212;-66
2021/03/10 06:15:06;;;;;;;68.17;36.87;;;;;;;;;;5049148;28;20207;-67
2021/03/10 06:17:40;;;;;;;68.23;35.67;;;;;;;;;;5042926;28;20228;-68
2021/03/10 06:20:06;;;;;;;68.87;36.63;;;;;;;;;;5045785;28;20192;-69
2021/03/10 06:22:33;;;;;;;67.47;37.27;;;;;;;;;;5045305;28;20616;-67
2021/03/10 06:25:02;;;;;;;67.93;36.10;;;;;;;;;;5040857;28;20211;-66
2021/03/10 06:27:27;;;;;;;68.00;38.80;;;;;;;;;;5045137;28;20181;-67
2021/03/10 06:30:00;;;;;;;68.37;37.23;;;;;;;;;;5047950;28;20243;-69
2021/03/10 06:32:25;;;;;;;66.07;37.80;;;;;;;;;;5049460;28;20200;-67
2021/03/10 06:34:51;;;;;;;76.83;39.33;;;;;;;;;;5044185;28;21608;-68
2021/03/10 06:37:31;;;;;;;65.90;37.33;;;;;;;;;;5045642;28;20672;-67
2021/03/10 06:40:06;;;;;;;61.77;38.07;;;;;;;;;;5042013;28;20197;-69
2021/03/10 06:42:31;;;;;;;70.07;36.43;;;;;;;;;;5034297;28;20173;-67
2021/03/10 06:44:56;;;;;;;74.83;38.47;;;;;;;;;;5049444;28;20562;-68
2021/03/10 06:47:22;;;;;;;70.00;37.07;;;;;;;;;;5044994;28;20230;-67
2021/03/10 06:49:51;;;;;;;70.43;38.90;;;;;;;;;;5041238;28;20227;-67
2021/03/10 06:52:16;;;;;;;66.53;38.03;;;;;;;;;;5051210;28;20186;-67
2021/03/10 06:54:54;;;;;;;75.50;38.67;;;;;;;;;;5054586;28;20666;-67
2021/03/10 06:57:19;;;;;;;59.20;36.73;;;;;;;;;;5041411;28;20201;-67
2021/03/10 06:59:49;;;;;;;69.80;38.30;;;;;;;;;;5052739;28;20717;-67
2021/03/10 07:02:14;;;;;;;64.53;38.27;;;;;;;;;;5045331;28;20632;-68
2021/03/10 07:04:41;;;;;;;65.07;36.17;;;;;;;;;;5041753;28;20189;-67
2021/03/10 07:07:07;;;;;;;62.83;35.23;;;;;;;;;;5041838;28;20185;-69
2021/03/10 07:09:32;;;;;;;65.93;36.10;;;;;;;;;;5044517;28;20205;-67
2021/03/10 07:11:58;;;;;;;58.70;35.17;;;;;;;;;;5046211;28;20224;-66
2021/03/10 07:14:23;;;;;;;63.93;37.00;;;;;;;;;;5040026;28;20530;-68
2021/03/10 07:16:49;;;;;;;66.07;35.37;;;;;;;;;;5040332;28;20546;-67
2021/03/10 07:19:14;;;;;;;59.13;33.73;;;;;;;;;;5047684;28;21990;-67
2021/03/10 07:21:41;;;;;;;59.83;34.13;;;;;;;;;;5043538;28;20170;-67
2021/03/10 07:24:12;;;;;;;54.97;34.90;;;;;;;;;;5042246;28;20242;-67
2021/03/10 07:26:42;;;;;;;59.10;34.57;;;;;;;;;;5041090;28;20229;-68
2021/03/10 07:29:08;;;;;;;54.33;34.30;;;;;;;;;;5042396;28;20205;-67
2021/03/10 07:31:33;;;;;;;55.27;33.03;;;;;;;;;;5045019;28;20190;-66
2021/03/10 07:33:59;;;;;;;54.20;33.93;;;;;;;;;;5045670;28;20170;-66
2021/03/10 07:36:31;;;;;;;58.30;34.60;;;;;;;;;;5051022;28;21601;-67
2021/03/10 07:38:56;;;;;;;52.00;32.27;;;;;;;;;;5040331;28;20206;-68
2021/03/10 07:41:30;;;;;;;55.27;32.90;;;;;;;;;;5042750;28;20189;-67
2021/03/10 07:43:58;;;;;;;54.47;32.80;;;;;;;;;;5051039;28;20173;-67
2021/03/10 07:46:25;;;;;;;52.60;32.33;;;;;;;;;;5038402;28;20174;-67
2021/03/10 07:48:51;;;;;;;52.57;31.77;;;;;;;;;;5041541;28;20193;-67
2021/03/10 07:51:25;;;;;;;58.03;32.97;;;;;;;;;;5041873;28;20177;-66
2021/03/10 07:53:50;;;;;;;54.37;32.67;;;;;;;;;;5048362;28;20185;-67
2021/03/10 07:56:25;;;;;;;48.67;32.27;;;;;;;;;;5049720;28;20174;-68
2021/03/10 07:58:50;;;;;;;55.60;31.53;;;;;;;;;;5051258;28;20312;-68
2021/03/10 08:01:15;;;;;;;50.23;30.43;;;;;;;;;;5038830;28;20286;-68
2021/03/10 08:03:41;;;;;;;48.63;31.53;;;;;;;;;;5042047;28;20659;-68
2021/03/10 08:06:06;;;;;;;51.80;31.47;;;;;;;;;;5050238;28;20236;-69
2021/03/10 08:08:39;;;;;;;50.37;30.87;;;;;;;;;;5050077;28;20268;-68
2021/03/10 08:11:05;;;;;;;53.77;31.17;;;;;;;;;;5043612;28;20197;-68
2021/03/10 08:13:30;;;;;;;57.43;35.37;;;;;;;;;;5037988;28;20189;-68
2021/03/10 08:16:05;;;;;;;72.00;45.97;;;;;;;;;;5044527;28;20536;-68
2021/03/10 08:18:33;;;;;;;88.67;55.93;;;;;;;;;;5039079;28;20205;-67
2021/03/10 08:21:12;;;;;;;93.57;56.27;;;;;;;;;;5046436;28;20202;-69
2021/03/10 08:23:37;;;;;;;84.97;54.37;;;;;;;;;;5048713;28;20182;-66
2021/03/10 08:26:07;;;;;;;82.93;53.03;;;;;;;;;;5029231;28;20182;-67
2021/03/10 08:28:34;;;;;;;73.70;46.90;;;;;;;;;;5024612;28;20236;-68
2021/03/10 08:31:00;;;;;;;61.33;40.50;;;;;;;;;;5025676;28;20689;-68
2021/03/10 08:33:26;;;;;;;69.07;42.97;;;;;;;;;;5026378;28;20182;-68
2021/03/10 08:35:52;;;;;;;60.97;38.30;;;;;;;;;;5026114;28;20204;-68
2021/03/10 08:38:17;;;;;;;56.67;36.13;;;;;;;;;;5025636;28;20228;-67
2021/03/10 08:40:42;;;;;;;50.93;34.30;;;;;;;;;;5031125;28;20226;-68
2021/03/10 08:43:15;;;;;;;47.07;31.53;;;;;;;;;;5027188;28;20232;-67
2021/03/10 08:45:40;;;;;;;48.40;31.20;;;;;;;;;;5031782;28;20256;-68
2021/03/10 08:48:09;;;;;;;44.57;28.63;;;;;;;;;;5027851;28;20261;-68
2021/03/10 08:50:36;;;;;;;42.27;29.57;;;;;;;;;;5024760;28;20808;-67
2021/03/10 08:53:01;;;;;;;45.57;27.80;;;;;;;;;;5037569;28;20200;-68
2021/03/10 08:55:27;;;;;;;42.20;28.70;;;;;;;;;;5036339;28;20178;-68
2021/03/10 08:57:53;;;;;;;43.73;28.47;;;;;;;;;;5030919;28;20865;-69
2021/03/10 09:00:22;;;;;;;44.10;28.47;;;;;;;;;;5036329;28;20697;-68
2021/03/10 09:02:50;;;;;;;43.30;28.73;;;;;;;;;;5033544;28;20170;-67
2021/03/10 09:05:16;;;;;;;44.10;30.33;;;;;;;;;;5023640;28;20316;-68
2021/03/10 09:07:42;;;;;;;40.93;27.47;;;;;;;;;;5026222;28;20271;-68
2021/03/10 09:10:08;;;;;;;45.27;28.80;;;;;;;;;;5035911;28;20255;-68
2021/03/10 09:12:38;;;;;;;45.37;28.80;;;;;;;;;;5034449;28;20237;-69
2021/03/10 09:15:08;;;;;;;44.07;27.80;;;;;;;;;;5041939;28;20673;-68
2021/03/10 09:17:36;;;;;;;43.67;26.23;;;;;;;;;;5024807;28;20332;-68
2021/03/10 09:20:02;;;;;;;46.77;27.60;;;;;;;;;;5026134;28;20544;-68
2021/03/10 09:22:27;;;;;;;44.93;29.33;;;;;;;;;;5030158;28;20170;-68
2021/03/10 09:24:54;;;;;;;44.50;28.63;;;;;;;;;;5036440;28;20204;-68
2021/03/10 09:27:19;;;;;;;43.97;27.40;;;;;;;;;;5035312;28;20212;-68
2021/03/10 09:29:45;;;;;;;43.03;28.20;;;;;;;;;;5047651;28;20640;-68
2021/03/10 09:32:10;;;;;;;43.17;28.13;;;;;;;;;;5039037;28;20204;-68
2021/03/10 09:34:35;;;;;;;44.37;27.43;;;;;;;;;;5025572;28;20188;-68
2021/03/10 09:37:07;;;;;;;35.77;25.93;;;;;;;;;;5027350;28;20670;-68
2021/03/10 09:39:39;;;;;;;41.73;29.33;;;;;;;;;;5028016;28;20220;-68
2021/03/10 09:42:05;;;;;;;44.87;29.20;;;;;;;;;;5028754;28;20241;-67
2021/03/10 09:44:43;;;;;;;42.83;29.87;;;;;;;;;;5024916;28;21704;-69
2021/03/10 09:47:13;;;;;;;49.80;31.03;;;;;;;;;;5025263;28;20213;-68
2021/03/10 09:49:48;;;;;;;41.07;27.43;;;;;;;;;;5024610;28;20214;-69
2021/03/10 09:52:14;;;;;;;41.73;27.70;;;;;;;;;;5028235;28;20230;-69
2021/03/10 09:54:49;;;;;;;38.17;24.90;;;;;;;;;;5023316;28;20264;-68
2021/03/10 09:57:21;;;;;;;36.03;24.93;;;;;;;;;;5030907;28;21815;-69
2021/03/10 09:59:47;;;;;;;32.00;22.47;;;;;;;;;;5023138;28;20198;-68
2021/03/10 10:02:14;;;;;;;38.67;24.33;;;;;;;;;;5025605;28;20785;-68
2021/03/10 10:04:40;;;;;;;31.33;22.13;;;;;;;;;;5025363;28;20185;-67
2021/03/10 10:07:07;;;;;;;30.27;20.93;;;;;;;;;;5030259;28;20178;-69
2021/03/10 10:09:32;;;;;;;28.90;20.10;;;;;;;;;;5023321;28;20209;-67
2021/03/10 10:12:00;;;;;;;26.47;18.77;;;;;;;;;;5029785;28;20212;-67
2021/03/10 10:14:25;;;;;;;28.03;19.80;;;;;;;;;;5039860;28;20651;-68
2021/03/10 10:16:50;;;;;;;29.17;20.10;;;;;;;;;;5037014;28;20202;-69
2021/03/10 10:19:15;;;;;;;29.20;20.10;;;;;;;;;;5046019;28;20283;-69
2021/03/10 10:21:40;;;;;;;28.83;18.67;;;;;;;;;;5049660;28;20543;-68
2021/03/10 10:24:06;;;;;;;25.93;19.60;;;;;;;;;;5049349;28;20181;-68
2021/03/10 10:26:31;;;;;;;25.57;18.30;;;;;;;;;;5043919;28;20173;-67
2021/03/10 10:28:56;;;;;;;30.63;19.40;;;;;;;;;;5037634;28;20198;-68
2021/03/10 10:31:21;;;;;;;24.57;16.93;;;;;;;;;;5043214;28;20205;-67
2021/03/10 10:33:46;;;;;;;30.23;18.03;;;;;;;;;;5025518;28;20174;-68
2021/03/10 10:36:12;;;;;;;25.27;18.20;;;;;;;;;;5027320;28;20195;-66
2021/03/10 10:38:37;;;;;;;22.87;17.50;;;;;;;;;;5033643;28;20206;-69
2021/03/10 10:41:02;;;;;;;21.47;16.70;;;;;;;;;;5036117;28;20181;-68
2021/03/10 10:43:31;;;;;;;30.07;18.13;;;;;;;;;;5035433;28;20192;-67
2021/03/10 10:45:56;;;;;;;23.60;17.63;;;;;;;;;;5023974;28;20180;-68
2021/03/10 10:48:21;;;;;;;23.17;15.93;;;;;;;;;;5032557;28;20178;-68
2021/03/10 10:50:46;;;;;;;23.10;15.93;;;;;;;;;;5035182;28;20218;-67
2021/03/10 10:53:11;;;;;;;25.13;15.03;;;;;;;;;;5047723;28;20559;-68
2021/03/10 10:55:37;;;;;;;22.87;14.80;;;;;;;;;;5032171;28;20190;-68
2021/03/10 10:58:02;;;;;;;21.17;15.23;;;;;;;;;;5022319;28;20205;-67
2021/03/10 11:00:27;;;;;;;21.33;15.10;;;;;;;;;;5021079;28;20194;-67
2021/03/10 11:02:53;;;;;;;19.40;14.43;;;;;;;;;;5026187;28;20185;-67
2021/03/10 11:05:18;;;;;;;23.07;16.63;;;;;;;;;;5022453;28;20174;-68
2021/03/10 11:07:43;;;;;;;21.33;14.60;;;;;;;;;;5028347;28;20400;-68
2021/03/10 11:10:08;;;;;;;22.60;15.53;;;;;;;;;;5029378;28;20210;-67
2021/03/10 11:12:34;;;;;;;23.20;16.00;;;;;;;;;;5043761;28;20251;-67
2021/03/10 11:14:59;;;;;;;24.13;15.67;;;;;;;;;;5026311;28;20185;-67
2021/03/10 11:17:24;;;;;;;22.90;15.67;;;;;;;;;;5028183;28;20205;-68
2021/03/10 11:19:49;;;;;;;21.10;14.30;;;;;;;;;;5041925;28;20256;-68
2021/03/10 11:22:15;;;;;;;23.13;17.03;;;;;;;;;;5027224;28;20246;-67
2021/03/10 11:24:40;;;;;;;30.03;16.37;;;;;;;;;;5025654;28;20178;-68
2021/03/10 11:27:05;;;;;;;19.90;14.77;;;;;;;;;;5031547;28;21645;-68
2021/03/10 11:29:30;;;;;;;24.90;16.47;;;;;;;;;;5023152;28;20281;-67
2021/03/10 11:31:56;;;;;;;27.23;16.30;;;;;;;;;;5031788;28;20198;-67
2021/03/10 11:34:21;;;;;;;27.20;16.13;;;;;;;;;;5029374;28;20713;-66
2021/03/10 11:36:46;;;;;;;24.50;16.17;;;;;;;;;;5042783;28;20185;-67
2021/03/10 11:39:12;;;;;;;24.53;16.90;;;;;;;;;;5030366;28;20206;-67
2021/03/10 11:41:38;;;;;;;23.33;16.27;;;;;;;;;;5026467;28;20251;-67
2021/03/10 11:44:04;;;;;;;29.23;17.60;;;;;;;;;;5026531;28;20735;-67
2021/03/10 11:46:29;;;;;;;24.27;16.03;;;;;;;;;;5030876;28;20174;-68
2021/03/10 11:48:55;;;;;;;22.73;16.53;;;;;;;;;;5027400;28;20722;-68
2021/03/10 11:51:20;;;;;;;24.10;17.93;;;;;;;;;;5026871;28;20573;-68
2021/03/10 11:53:45;;;;;;;23.17;16.10;;;;;;;;;;5027172;28;20706;-67
2021/03/10 11:56:10;;;;;;;27.37;17.40;;;;;;;;;;5040616;28;20192;-68
2021/03/10 11:58:35;;;;;;;22.83;16.67;;;;;;;;;;5036940;28;20276;-68
2021/03/10 12:01:01;;;;;;;23.20;16.30;;;;;;;;;;5024822;28;20261;-68
2021/03/10 12:03:26;;;;;;;22.77;16.00;;;;;;;;;;5043627;28;20185;-68
2021/03/10 12:05:51;;;;;;;22.00;15.03;;;;;;;;;;5051180;28;20269;-68
2021/03/10 12:08:16;;;;;;;19.20;14.37;;;;;;;;;;5029714;28;20190;-68
2021/03/10 12:10:41;;;;;;;22.73;14.90;;;;;;;;;;5031810;28;20195;-68
2021/03/10 12:13:10;;;;;;;19.83;14.40;;;;;;;;;;5027567;28;20887;-67
2021/03/10 12:15:36;;;;;;;21.40;14.60;;;;;;;;;;5025715;28;20178;-67
2021/03/10 12:18:01;;;;;;;20.80;15.37;;;;;;;;;;5029137;28;20213;-68
2021/03/10 12:20:26;;;;;;;20.00;15.00;;;;;;;;;;5030258;28;20205;-68
2021/03/10 12:22:51;;;;;;;21.47;15.87;;;;;;;;;;5026331;28;20612;-68
2021/03/10 12:25:16;;;;;;;21.07;15.40;;;;;;;;;;5027609;28;20190;-67
2021/03/10 12:27:42;;;;;;;25.93;16.80;;;;;;;;;;5025156;28;20174;-67
2021/03/10 12:30:07;;;;;;;19.97;14.37;;;;;;;;;;5026542;28;20702;-68
2021/03/10 12:32:35;;;;;;;19.07;14.20;;;;;;;;;;5026860;28;20194;-67
2021/03/10 12:35:01;;;;;;;22.43;16.03;;;;;;;;;;5025810;28;20659;-68
2021/03/10 12:37:26;;;;;;;21.43;15.60;;;;;;;;;;5030708;28;20220;-66
2021/03/10 12:39:51;;;;;;;20.60;14.97;;;;;;;;;;5026715;28;20208;-68
2021/03/10 12:42:16;;;;;;;19.20;14.73;;;;;;;;;;5032414;28;20272;-67
2021/03/10 12:44:42;;;;;;;21.00;14.57;;;;;;;;;;5025412;28;20602;-68
2021/03/10 12:47:09;;;;;;;22.43;14.43;;;;;;;;;;5026538;28;20195;-67
2021/03/10 12:49:34;;;;;;;22.10;14.57;;;;;;;;;;5031495;28;22026;-68
2021/03/10 12:51:59;;;;;;;18.33;14.20;;;;;;;;;;5027219;28;20185;-67
2021/03/10 12:54:25;;;;;;;20.07;14.63;;;;;;;;;;5030014;28;20178;-67
2021/03/10 12:56:51;;;;;;;20.07;14.90;;;;;;;;;;5029814;28;20190;-68
2021/03/10 12:59:16;;;;;;;20.13;14.83;;;;;;;;;;5025859;28;20682;-67
2021/03/10 13:01:42;;;;;;;20.27;14.23;;;;;;;;;;5026172;28;20185;-67
2021/03/10 13:04:07;;;;;;;18.03;13.33;;;;;;;;;;5025511;28;20659;-66
2021/03/10 13:06:32;;;;;;;24.83;15.57;;;;;;;;;;5025576;28;20219;-67
2021/03/10 13:08:57;;;;;;;19.77;13.50;;;;;;;;;;5025505;28;20206;-67
2021/03/10 13:11:22;;;;;;;18.57;12.87;;;;;;;;;;5037293;28;20182;-68
2021/03/10 13:13:48;;;;;;;21.07;12.93;;;;;;;;;;5029306;28;20210;-68
2021/03/10 13:16:13;;;;;;;17.97;12.63;;;;;;;;;;5025201;28;20664;-67
2021/03/10 13:18:38;;;;;;;19.97;12.90;;;;;;;;;;5022910;28;20749;-69
2021/03/10 13:21:03;;;;;;;19.50;13.30;;;;;;;;;;5030243;28;20181;-69
2021/03/10 13:23:28;;;;;;;19.53;13.30;;;;;;;;;;5027846;28;20679;-68
2021/03/10 13:25:54;;;;;;;18.80;12.20;;;;;;;;;;5032660;28;20334;-68
2021/03/10 13:28:19;;;;;;;22.07;14.97;;;;;;;;;;5025604;28;20174;-68
2021/03/10 13:30:44;;;;;;;20.60;13.37;;;;;;;;;;5025801;28;20576;-68
2021/03/10 13:33:09;;;;;;;20.23;13.80;;;;;;;;;;5029078;28;21216;-68
2021/03/10 13:35:39;;;;;;;18.60;11.73;;;;;;;;;;5025457;28;20559;-69
2021/03/10 13:38:04;;;;;;;17.03;12.23;;;;;;;;;;5027919;28;20331;-69
2021/03/10 13:40:30;;;;;;;18.10;12.40;;;;;;;;;;5023104;28;20260;-68
2021/03/10 13:42:55;;;;;;;18.73;12.47;;;;;;;;;;5028421;28;20266;-69
2021/03/10 13:45:20;;;;;;;17.33;13.17;;;;;;;;;;5024891;28;20182;-69
2021/03/10 13:47:45;;;;;;;16.73;12.20;;;;;;;;;;5029977;28;20561;-69
2021/03/10 13:50:11;;;;;;;18.73;12.70;;;;;;;;;;5025207;28;21466;-66
2021/03/10 13:52:36;;;;;;;17.93;13.03;;;;;;;;;;5026550;28;20185;-67
2021/03/10 13:55:01;;;;;;;22.13;13.63;;;;;;;;;;5023639;28;20194;-66
2021/03/10 13:57:26;;;;;;;18.30;13.13;;;;;;;;;;5030958;28;20217;-66
2021/03/10 13:59:51;;;;;;;18.45;12.52;;;;;;;;;;5024514;28;20225;-66
2021/03/10 14:02:16;;;;;;;17.57;12.20;;;;;;;;;;5025088;28;20185;-69
2021/03/10 14:04:42;;;;;;;16.93;12.47;;;;;;;;;;5022627;28;20666;-67
2021/03/10 14:07:07;;;;;;;20.03;14.20;;;;;;;;;;5023143;28;20185;-66
2021/03/10 14:09:32;;;;;;;21.10;13.70;;;;;;;;;;5030276;28;20632;-66